Blandford Forum, United Kingdom
Current Conditions -  °F | °C
As of 8:50 AM on Wednesday 28 Jan 2015 (Local Time) from EGHH Reporting Station
Broken Clouds Broken Clouds  
Wind Chill: 50°   Ceiling: 800
Heat Index: 50°   Visibility: 4mi
Dew Point: 48°   Wind: 23mph
Humidity: 94%   Direction: 240°WSW
Pressure: 29.68"   Gusts: 35mph
Location:  50.86°N, 2.16°W
Report Text: EGHH 280850Z 24020G30KT 6000 BKN008 10/09 Q1005
Loading
Personal Weather Stations






























Interactive Weather Map New forecast layout! Learn more

10-Day Weather Forecast

Advertisements
Track Severe Weather on mobile